Fivelborg — PCEL — position and weather

sailwx.info

Track history (hours):
 
Tides and Currents Weather Stations Pressure Air Temp Water Temp Dewpoint Dewpoint Depression Visibility Wind Speed Wind Dir Waves Ship Positions

Fivelborg

Last reported at 2018-Feb-13 09:56 UTC. Time now 2018-Feb-22 07:02 UTC.
Position N 49°59' W 003°51'.
Warning: this ship's position is 8 days out of date.

Length 154 m; draft 7.3 m.

Type: Cargo ship. MMSI: 245466000.

Date/timePositionNaut miles runAvg speedWind from/ knotsBaromVisibWave heightAir tempDewpointWater temp
2018-Feb-13 09:56N 49°59' W 003°51'5 8.5
2018-Feb-13 09:24N 50°01' W 003°44'3 7.3
2018-Feb-13 09:00N 50°02' W 003°40'3 6.8
2018-Feb-13 08:30N 50°04' W 003°35'2 4.1
2018-Feb-13 08:00N 50°05' W 003°33'2 3.8
2018-Feb-13 07:30N 50°06' W 003°31'1 3.0
2018-Feb-13 07:00N 50°07' W 003°29'3 5.4
2018-Feb-13 06:31N 50°08' W 003°25'3 5.8
2018-Feb-13 06:01N 50°08' W 003°20'3 5.5
2018-Feb-13 05:31N 50°09' W 003°16'3 5.7
2018-Feb-13 05:00N 50°09' W 003°12'4 7.1
2018-Feb-13 04:31N 50°10' W 003°06'4 7.5
2018-Feb-13 04:00N 50°11' W 003°01'4 7.5
2018-Feb-13 03:31N 50°12' W 002°55'5 8.1
2018-Feb-13 02:54N 50°13' W 002°48'5 9.6
2018-Feb-13 02:22N 50°14' W 002°40'8810.5
2018-Feb-12 17:56N 50°29' W 000°23'4 9.8
2018-Feb-12 17:30N 50°30' W 000°17'5 9.9
2018-Feb-12 17:00N 50°31' W 000°09'510.4
2018-Feb-12 16:30N 50°32' W 000°01'510.8
2018-Feb-12 16:00N 50°33' E 000°07'811.3
2018-Feb-12 15:16N 50°35' E 000°20'311.8
2018-Feb-12 15:00N 50°36' E 000°25'611.8
2018-Feb-12 14:30N 50°38' E 000°33'611.7
2018-Feb-12 14:00N 50°41' E 000°41'611.7
2018-Feb-12 13:31N 50°44' E 000°49'611.5
2018-Feb-12 13:00N 50°47' E 000°56'1211.0
2018-Feb-12 11:53N 50°56' E 001°10'410.1
2018-Feb-12 11:30N 50°58' E 001°15'5 9.8
2018-Feb-12 11:00N 51°01' E 001°21'5 9.6
2018-Feb-12 10:30N 51°04' E 001°27'5 9.9
2018-Feb-12 10:01N 51°07' E 001°33'5 9.9
2018-Feb-12 09:30N 51°10' E 001°40'510.1
2018-Feb-12 09:01N 51°14' E 001°46'510.9
2018-Feb-12 08:31N 51°19' E 001°49'611.6
2018-Feb-12 08:00N 51°24' E 001°53'611.9
2018-Feb-12 07:30N 51°29' E 001°59'612.0
2018-Feb-12 07:00N 51°33' E 002°05'612.0
2018-Feb-12 06:30N 51°38' E 002°12'611.9
2018-Feb-12 05:59N 51°42' E 002°19'611.7
2018-Feb-12 05:28N 51°47' E 002°25'  
2018-Feb-09 23:48N 57°48' E 010°17'310.5
2018-Feb-09 23:30N 57°48' E 010°23'510.5
2018-Feb-09 23:00N 57°48' E 010°32'2 9.5
2018-Feb-09 22:46N 57°47' E 010°37'5 0.3
2018-Feb-09 07:00N 57°43' E 010°36'1 1.2
2018-Feb-09 06:00N 57°42' E 010°37'2 3.7
2018-Feb-09 05:30N 57°41' E 010°36'0 0.0
2018-Feb-09 05:00N 57°41' E 010°36'0 0.0
2018-Feb-09 04:00N 57°41' E 010°36'0 0.0
2018-Feb-09 03:00N 57°41' E 010°36'0 0.0
2018-Feb-09 02:00N 57°41' E 010°36'0 0.0
2018-Feb-09 01:30N 57°41' E 010°36'0 0.0
2018-Feb-09 01:00N 57°41' E 010°36'0 0.0
2018-Feb-08 23:00N 57°41' E 010°36'0 0.0
2018-Feb-08 22:00N 57°41' E 010°36'1 1.0
2018-Feb-08 20:30N 57°41' E 010°39'510.6
2018-Feb-08 20:00N 57°40' E 010°49'510.5
2018-Feb-08 19:30N 57°39' E 010°58'1211.5
2018-Feb-08 18:30N 57°33' E 011°17'612.2
2018-Feb-08 18:00N 57°29' E 011°25'1812.1
2018-Feb-08 16:30N 57°12' E 011°37'611.9
2018-Feb-08 16:00N 57°06' E 011°41'5011.0
2018-Feb-08 11:30N 56°19' E 012°11'1811.8
2018-Feb-08 10:00N 56°07' E 012°33'1211.7
2018-Feb-08 09:00N 55°56' E 012°43'611.4
2018-Feb-08 08:30N 55°51' E 012°45'611.7
2018-Feb-08 08:00N 55°45' E 012°42'611.3
2018-Feb-08 07:30N 55°39' E 012°42'3 6.9
2018-Feb-08 07:00N 55°36' E 012°42'3 6.6
2018-Feb-08 06:30N 55°33' E 012°43'510.9
2018-Feb-08 06:00N 55°27' E 012°42'611.3
2018-Feb-08 05:30N 55°22' E 012°40'4610.6
2018-Feb-08 01:12N 55°13' E 013°59'211.4
2018-Feb-08 01:00N 55°13' E 014°03'611.4
2018-Feb-08 00:30N 55°13' E 014°13'610.6
2018-Feb-07 23:54N 55°17' E 014°22'411.3
2018-Feb-07 23:30N 55°21' E 014°26'611.4
2018-Feb-07 23:00N 55°25' E 014°34'611.5
2018-Feb-07 22:30N 55°28' E 014°41'611.4
2018-Feb-07 22:00N 55°31' E 014°50'611.3
2018-Feb-07 21:31N 55°34' E 014°59'20010.4
2018-Feb-07 02:11N 58°37' E 017°29'210.9
2018-Feb-07 02:00N 58°38' E 017°26'510.0
2018-Feb-07 01:30N 58°40' E 017°17'4 8.7
2018-Feb-07 01:00N 58°40' E 017°09'0 0.4
2018-Feb-07 00:30N 58°40' E 017°08'0 0.0
2018-Feb-07 00:00N 58°40' E 017°08'0 0.0
2018-Feb-06 23:30N 58°40' E 017°08'0 0.0
2018-Feb-06 23:00N 58°40' E 017°08'0 0.0
2018-Feb-06 22:30N 58°40' E 017°08'0 0.0
2018-Feb-06 22:00N 58°40' E 017°08'0 0.0
2018-Feb-06 21:29N 58°40' E 017°08'0 0.0
2018-Feb-06 20:56N 58°40' E 017°08'0 0.0
2018-Feb-06 18:58N 58°40' E 017°08'0 0.0
2018-Feb-06 18:28N 58°40' E 017°08'0 0.0
2018-Feb-06 17:55N 58°40' E 017°08'0 0.0
2018-Feb-06 17:28N 58°40' E 017°08'0 0.0
2018-Feb-06 16:58N 58°40' E 017°08'0 0.0
2018-Feb-06 16:28N 58°40' E 017°08'0 0.0
2018-Feb-06 15:58N 58°40' E 017°08'0 0.0
2018-Feb-06 15:28N 58°40' E 017°08'0 0.0
2018-Feb-06 14:58N 58°40' E 017°08'0 0.0
2018-Feb-06 14:28N 58°40' E 017°08'0 0.0
2018-Feb-06 13:58N 58°40' E 017°08'0 0.0
2018-Feb-06 13:28N 58°40' E 017°08'0 0.0
2018-Feb-06 12:55N 58°40' E 017°08'0 0.0
2018-Feb-06 12:28N 58°40' E 017°08'0 0.0
2018-Feb-06 11:58N 58°40' E 017°08'0 0.0
2018-Feb-06 11:24N 58°40' E 017°08'0 0.0
2018-Feb-06 10:59N 58°40' E 017°08'0 0.0
2018-Feb-06 10:21N 58°40' E 017°08'0 0.0
2018-Feb-06 10:00N 58°40' E 017°08'0 0.0
2018-Feb-06 09:30N 58°40' E 017°08'0 0.0
2018-Feb-06 09:00N 58°40' E 017°08'0 0.0
2018-Feb-06 08:30N 58°40' E 017°08'0 0.0
2018-Feb-06 08:00N 58°40' E 017°08'0 0.0
2018-Feb-06 07:29N 58°40' E 017°08'0 0.0
2018-Feb-06 06:56N 58°40' E 017°08'0 0.0
2018-Feb-06 06:30N 58°40' E 017°08'0 0.0
2018-Feb-06 05:57N 58°40' E 017°08'0 0.0
2018-Feb-06 05:30N 58°40' E 017°08'0 0.0
2018-Feb-06 04:57N 58°40' E 017°08'0 0.0
2018-Feb-06 04:30N 58°40' E 017°08'0 0.0
2018-Feb-06 04:00N 58°40' E 017°08'0 0.0
2018-Feb-06 03:29N 58°40' E 017°08'0 0.0
2018-Feb-06 02:59N 58°40' E 017°08'0 0.0
2018-Feb-06 02:29N 58°40' E 017°08'0 0.0
2018-Feb-06 01:59N 58°40' E 017°08'0 0.0
2018-Feb-06 01:29N 58°40' E 017°08'0 0.0
2018-Feb-06 00:56N 58°40' E 017°08'0 0.0
2018-Feb-06 00:29N 58°40' E 017°08'0 0.0
2018-Feb-05 23:59N 58°40' E 017°08'0 0.0
2018-Feb-05 23:29N 58°40' E 017°08'0 0.0
2018-Feb-05 22:59N 58°40' E 017°08'0 0.0
2018-Feb-05 22:29N 58°40' E 017°08'0 0.0
2018-Feb-05 21:59N 58°40' E 017°08'0 0.0
2018-Feb-05 21:29N 58°40' E 017°08'0 0.0
2018-Feb-05 20:59N 58°40' E 017°08'0 0.0
2018-Feb-05 20:29N 58°40' E 017°08'0 0.0
2018-Feb-05 19:58N 58°40' E 017°08'0 0.0
2018-Feb-05 19:28N 58°40' E 017°08'0 0.0
2018-Feb-05 18:58N 58°40' E 017°08'0 0.0
2018-Feb-05 18:28N 58°40' E 017°08'0 0.0
2018-Feb-05 17:58N 58°40' E 017°08'0 0.0
2018-Feb-05 17:25N 58°40' E 017°08'0 0.0
2018-Feb-05 17:00N 58°40' E 017°08'0 0.0
2018-Feb-05 16:30N 58°40' E 017°08'0 0.0
2018-Feb-05 16:00N 58°40' E 017°08'0 0.0
2018-Feb-05 15:30N 58°40' E 017°08'0 0.0
2018-Feb-05 15:00N 58°40' E 017°08'0 0.0
2018-Feb-05 14:30N 58°40' E 017°08'0 0.0
2018-Feb-05 14:00N 58°40' E 017°08'0 0.0
2018-Feb-05 13:30N 58°40' E 017°08'0 0.0
2018-Feb-05 13:00N 58°40' E 017°08'0 0.0
2018-Feb-05 12:30N 58°40' E 017°08'0 0.0
2018-Feb-05 12:00N 58°40' E 017°08'0 0.0
2018-Feb-05 11:30N 58°40' E 017°08'0 0.0
2018-Feb-05 11:00N 58°40' E 017°08'0 0.0
2018-Feb-05 10:30N 58°40' E 017°08'0 0.0
2018-Feb-05 10:00N 58°40' E 017°08'0 0.0
2018-Feb-05 09:30N 58°40' E 017°08'0 0.0
2018-Feb-05 09:00N 58°40' E 017°08'0 0.0
2018-Feb-05 08:30N 58°40' E 017°08'0 0.0
2018-Feb-05 08:00N 58°40' E 017°08'0 0.0
2018-Feb-05 07:30N 58°40' E 017°08'0 0.0
2018-Feb-05 07:00N 58°40' E 017°08'0 0.0
2018-Feb-05 06:30N 58°40' E 017°08'0 0.0
2018-Feb-05 05:30N 58°40' E 017°08'0 0.0
2018-Feb-05 05:00N 58°40' E 017°08'0 0.0
2018-Feb-05 04:30N 58°40' E 017°08'0 0.0
2018-Feb-05 04:00N 58°40' E 017°08'0 0.0
2018-Feb-05 03:30N 58°40' E 017°08'0 0.0
2018-Feb-05 03:00N 58°40' E 017°08'0 0.0
2018-Feb-05 02:30N 58°40' E 017°08'0 0.0
2018-Feb-05 02:00N 58°40' E 017°08'0 0.0
2018-Feb-05 01:30N 58°40' E 017°08'0 0.0
2018-Feb-05 01:00N 58°40' E 017°08'0 0.0
2018-Feb-05 00:30N 58°40' E 017°08'0 0.0
2018-Feb-05 00:00N 58°40' E 017°08'0 0.0
2018-Feb-04 23:30N 58°40' E 017°08'0 0.0
2018-Feb-04 23:00N 58°40' E 017°08'0 0.0
2018-Feb-04 22:30N 58°40' E 017°08'0 0.0
2018-Feb-04 22:00N 58°40' E 017°08'0 0.0
2018-Feb-04 21:30N 58°40' E 017°08'0 0.0
2018-Feb-04 20:51N 58°40' E 017°08'0 0.0
2018-Feb-04 20:00N 58°40' E 017°08'0 0.0
2018-Feb-04 19:27N 58°40' E 017°08'0 0.0
2018-Feb-04 19:00N 58°40' E 017°08'0 0.0
2018-Feb-04 18:30N 58°40' E 017°08'0 0.0
2018-Feb-04 18:00N 58°40' E 017°08'0 0.0
2018-Feb-04 17:27N 58°40' E 017°08'0 0.0
2018-Feb-04 15:30N 58°40' E 017°08'0 0.0
2018-Feb-04 14:57N 58°40' E 017°08'0 0.0
2018-Feb-04 14:30N 58°40' E 017°08'0 0.0
2018-Feb-04 14:00N 58°40' E 017°08'0 0.0
2018-Feb-04 13:30N 58°40' E 017°08'0 0.0
2018-Feb-04 12:59N 58°40' E 017°08'0 0.0
2018-Feb-04 12:29N 58°40' E 017°08'0 0.0
2018-Feb-04 11:59N 58°40' E 017°08'0 0.0
2018-Feb-04 11:29N 58°40' E 017°08'0 0.0
2018-Feb-04 09:59N 58°40' E 017°08'0 0.0
2018-Feb-04 08:59N 58°40' E 017°08'0 0.0
2018-Feb-04 08:29N 58°40' E 017°08'0 0.0
2018-Feb-04 07:59N 58°40' E 017°08'0 0.0
2018-Feb-04 07:29N 58°40' E 017°08'0 0.0
2018-Feb-04 06:59N 58°40' E 017°08'0 0.0
2018-Feb-04 06:29N 58°40' E 017°08'0 0.0
2018-Feb-04 05:59N 58°40' E 017°08'0 0.0
2018-Feb-04 05:29N 58°40' E 017°08'0 0.0
2018-Feb-04 04:59N 58°40' E 017°08'0 0.0
2018-Feb-04 04:29N 58°40' E 017°08'0 0.0
2018-Feb-04 03:59N 58°40' E 017°08'0 0.0
2018-Feb-04 03:29N 58°40' E 017°08'0 0.0
2018-Feb-04 02:59N 58°40' E 017°08'0 0.0
2018-Feb-04 02:26N 58°40' E 017°08'0 0.0
2018-Feb-04 02:00N 58°40' E 017°08'0 0.0
2018-Feb-04 01:30N 58°40' E 017°08'0 0.0
2018-Feb-04 00:59N 58°40' E 017°08'0 0.0
2018-Feb-04 00:29N 58°40' E 017°08'0 0.0
2018-Feb-03 23:59N 58°40' E 017°08'0 0.0
2018-Feb-03 23:29N 58°40' E 017°08'0 0.0
2018-Feb-03 22:59N 58°40' E 017°08'0 0.0
2018-Feb-03 22:29N 58°40' E 017°08'0 0.0
2018-Feb-03 21:53N 58°40' E 017°08'0 0.0
2018-Feb-03 21:29N 58°40' E 017°08'0 0.0
2018-Feb-03 20:58N 58°40' E 017°08'0 0.0
2018-Feb-03 20:28N 58°40' E 017°08'0 0.0
2018-Feb-03 19:54N 58°40' E 017°08'0 0.0
2018-Feb-03 18:24N 58°40' E 017°08'0 0.0
2018-Feb-03 18:00N 58°40' E 017°08'0 0.0
2018-Feb-03 17:24N 58°40' E 017°08'0 0.0
2018-Feb-03 16:57N 58°40' E 017°08'0 0.0
2018-Feb-03 16:00N 58°40' E 017°08'0 0.0
2018-Feb-03 15:30N 58°40' E 017°08'0 0.0
2018-Feb-03 14:45N 58°40' E 017°08'0 0.0
2018-Feb-03 13:55N 58°40' E 017°08'0 0.0
2018-Feb-03 13:25N 58°40' E 017°08'0 0.0
2018-Feb-03 12:55N 58°40' E 017°08'0 0.0
2018-Feb-03 11:25N 58°40' E 017°08'0 0.0
2018-Feb-03 10:55N 58°40' E 017°08'0 0.0
2018-Feb-03 10:19N 58°40' E 017°08'0 0.0
2018-Feb-03 09:58N 58°40' E 017°08'  
Track history (hours):
 
Tides and Currents Weather Stations Pressure Air Temp Water Temp Dewpoint Dewpoint Depression Visibility Wind Speed Wind Dir Waves Ship Positions

Fivelborg

Last reported at 2018-Feb-13 09:56 UTC. Time now 2018-Feb-22 07:02 UTC.
Position N 49°59' W 003°51'.
Warning: this ship's position is 8 days out of date.

Length 154 m; draft 7.3 m.

Type: Cargo ship. MMSI: 245466000.

Date/timePositionNaut miles runAvg speedWind from/ knotsBaromVisibWave heightAir tempDewpointWater temp
2018-Feb-13 09:56N 49°59' W 003°51'5 8.5
2018-Feb-13 09:24N 50°01' W 003°44'3 7.3
2018-Feb-13 09:00N 50°02' W 003°40'3 6.8
2018-Feb-13 08:30N 50°04' W 003°35'2 4.1
2018-Feb-13 08:00N 50°05' W 003°33'2 3.8
2018-Feb-13 07:30N 50°06' W 003°31'1 3.0
2018-Feb-13 07:00N 50°07' W 003°29'3 5.4
2018-Feb-13 06:31N 50°08' W 003°25'3 5.8
2018-Feb-13 06:01N 50°08' W 003°20'3 5.5
2018-Feb-13 05:31N 50°09' W 003°16'3 5.7
2018-Feb-13 05:00N 50°09' W 003°12'4 7.1
2018-Feb-13 04:31N 50°10' W 003°06'4 7.5
2018-Feb-13 04:00N 50°11' W 003°01'4 7.5
2018-Feb-13 03:31N 50°12' W 002°55'5 8.1
2018-Feb-13 02:54N 50°13' W 002°48'5 9.6
2018-Feb-13 02:22N 50°14' W 002°40'8810.5
2018-Feb-12 17:56N 50°29' W 000°23'4 9.8
2018-Feb-12 17:30N 50°30' W 000°17'5 9.9
2018-Feb-12 17:00N 50°31' W 000°09'510.4
2018-Feb-12 16:30N 50°32' W 000°01'510.8
2018-Feb-12 16:00N 50°33' E 000°07'811.3
2018-Feb-12 15:16N 50°35' E 000°20'311.8
2018-Feb-12 15:00N 50°36' E 000°25'611.8
2018-Feb-12 14:30N 50°38' E 000°33'611.7
2018-Feb-12 14:00N 50°41' E 000°41'611.7
2018-Feb-12 13:31N 50°44' E 000°49'611.5
2018-Feb-12 13:00N 50°47' E 000°56'1211.0
2018-Feb-12 11:53N 50°56' E 001°10'410.1
2018-Feb-12 11:30N 50°58' E 001°15'5 9.8
2018-Feb-12 11:00N 51°01' E 001°21'5 9.6
2018-Feb-12 10:30N 51°04' E 001°27'5 9.9
2018-Feb-12 10:01N 51°07' E 001°33'5 9.9
2018-Feb-12 09:30N 51°10' E 001°40'510.1
2018-Feb-12 09:01N 51°14' E 001°46'510.9
2018-Feb-12 08:31N 51°19' E 001°49'611.6
2018-Feb-12 08:00N 51°24' E 001°53'611.9
2018-Feb-12 07:30N 51°29' E 001°59'612.0
2018-Feb-12 07:00N 51°33' E 002°05'612.0
2018-Feb-12 06:30N 51°38' E 002°12'611.9
2018-Feb-12 05:59N 51°42' E 002°19'611.7
2018-Feb-12 05:28N 51°47' E 002°25'  
2018-Feb-09 23:48N 57°48' E 010°17'310.5
2018-Feb-09 23:30N 57°48' E 010°23'510.5
2018-Feb-09 23:00N 57°48' E 010°32'2 9.5
2018-Feb-09 22:46N 57°47' E 010°37'5 0.3
2018-Feb-09 07:00N 57°43' E 010°36'1 1.2
2018-Feb-09 06:00N 57°42' E 010°37'2 3.7
2018-Feb-09 05:30N 57°41' E 010°36'0 0.0
2018-Feb-09 05:00N 57°41' E 010°36'0 0.0
2018-Feb-09 04:00N 57°41' E 010°36'0 0.0
2018-Feb-09 03:00N 57°41' E 010°36'0 0.0
2018-Feb-09 02:00N 57°41' E 010°36'0 0.0
2018-Feb-09 01:30N 57°41' E 010°36'0 0.0
2018-Feb-09 01:00N 57°41' E 010°36'0 0.0
2018-Feb-08 23:00N 57°41' E 010°36'0 0.0
2018-Feb-08 22:00N 57°41' E 010°36'1 1.0
2018-Feb-08 20:30N 57°41' E 010°39'510.6
2018-Feb-08 20:00N 57°40' E 010°49'510.5
2018-Feb-08 19:30N 57°39' E 010°58'1211.5
2018-Feb-08 18:30N 57°33' E 011°17'612.2
2018-Feb-08 18:00N 57°29' E 011°25'1812.1
2018-Feb-08 16:30N 57°12' E 011°37'611.9
2018-Feb-08 16:00N 57°06' E 011°41'5011.0
2018-Feb-08 11:30N 56°19' E 012°11'1811.8
2018-Feb-08 10:00N 56°07' E 012°33'1211.7
2018-Feb-08 09:00N 55°56' E 012°43'611.4
2018-Feb-08 08:30N 55°51' E 012°45'611.7
2018-Feb-08 08:00N 55°45' E 012°42'611.3
2018-Feb-08 07:30N 55°39' E 012°42'3 6.9
2018-Feb-08 07:00N 55°36' E 012°42'3 6.6
2018-Feb-08 06:30N 55°33' E 012°43'510.9
2018-Feb-08 06:00N 55°27' E 012°42'611.3
2018-Feb-08 05:30N 55°22' E 012°40'4610.6
2018-Feb-08 01:12N 55°13' E 013°59'211.4
2018-Feb-08 01:00N 55°13' E 014°03'611.4
2018-Feb-08 00:30N 55°13' E 014°13'610.6
2018-Feb-07 23:54N 55°17' E 014°22'411.3
2018-Feb-07 23:30N 55°21' E 014°26'611.4
2018-Feb-07 23:00N 55°25' E 014°34'611.5
2018-Feb-07 22:30N 55°28' E 014°41'611.4
2018-Feb-07 22:00N 55°31' E 014°50'611.3
2018-Feb-07 21:31N 55°34' E 014°59'20010.4
2018-Feb-07 02:11N 58°37' E 017°29'210.9
2018-Feb-07 02:00N 58°38' E 017°26'510.0
2018-Feb-07 01:30N 58°40' E 017°17'4 8.7
2018-Feb-07 01:00N 58°40' E 017°09'0 0.4
2018-Feb-07 00:30N 58°40' E 017°08'0 0.0
2018-Feb-07 00:00N 58°40' E 017°08'0 0.0
2018-Feb-06 23:30N 58°40' E 017°08'0 0.0
2018-Feb-06 23:00N 58°40' E 017°08'0 0.0
2018-Feb-06 22:30N 58°40' E 017°08'0 0.0
2018-Feb-06 22:00N 58°40' E 017°08'0 0.0
2018-Feb-06 21:29N 58°40' E 017°08'0 0.0
2018-Feb-06 20:56N 58°40' E 017°08'0 0.0
2018-Feb-06 18:58N 58°40' E 017°08'0 0.0
2018-Feb-06 18:28N 58°40' E 017°08'0 0.0
2018-Feb-06 17:55N 58°40' E 017°08'0 0.0
2018-Feb-06 17:28N 58°40' E 017°08'0 0.0
2018-Feb-06 16:58N 58°40' E 017°08'0 0.0
2018-Feb-06 16:28N 58°40' E 017°08'0 0.0
2018-Feb-06 15:58N 58°40' E 017°08'0 0.0
2018-Feb-06 15:28N 58°40' E 017°08'0 0.0
2018-Feb-06 14:58N 58°40' E 017°08'0 0.0
2018-Feb-06 14:28N 58°40' E 017°08'0 0.0
2018-Feb-06 13:58N 58°40' E 017°08'0 0.0
2018-Feb-06 13:28N 58°40' E 017°08'0 0.0
2018-Feb-06 12:55N 58°40' E 017°08'0 0.0
2018-Feb-06 12:28N 58°40' E 017°08'0 0.0
2018-Feb-06 11:58N 58°40' E 017°08'0 0.0
2018-Feb-06 11:24N 58°40' E 017°08'0 0.0
2018-Feb-06 10:59N 58°40' E 017°08'0 0.0
2018-Feb-06 10:21N 58°40' E 017°08'0 0.0
2018-Feb-06 10:00N 58°40' E 017°08'0 0.0
2018-Feb-06 09:30N 58°40' E 017°08'0 0.0
2018-Feb-06 09:00N 58°40' E 017°08'0 0.0
2018-Feb-06 08:30N 58°40' E 017°08'0 0.0
2018-Feb-06 08:00N 58°40' E 017°08'0 0.0
2018-Feb-06 07:29N 58°40' E 017°08'0 0.0
2018-Feb-06 06:56N 58°40' E 017°08'0 0.0
2018-Feb-06 06:30N 58°40' E 017°08'0 0.0
2018-Feb-06 05:57N 58°40' E 017°08'0 0.0
2018-Feb-06 05:30N 58°40' E 017°08'0 0.0
2018-Feb-06 04:57N 58°40' E 017°08'0 0.0
2018-Feb-06 04:30N 58°40' E 017°08'0 0.0
2018-Feb-06 04:00N 58°40' E 017°08'0 0.0
2018-Feb-06 03:29N 58°40' E 017°08'0 0.0
2018-Feb-06 02:59N 58°40' E 017°08'0 0.0
2018-Feb-06 02:29N 58°40' E 017°08'0 0.0
2018-Feb-06 01:59N 58°40' E 017°08'0 0.0
2018-Feb-06 01:29N 58°40' E 017°08'0 0.0
2018-Feb-06 00:56N 58°40' E 017°08'0 0.0
2018-Feb-06 00:29N 58°40' E 017°08'0 0.0
2018-Feb-05 23:59N 58°40' E 017°08'0 0.0
2018-Feb-05 23:29N 58°40' E 017°08'0 0.0
2018-Feb-05 22:59N 58°40' E 017°08'0 0.0
2018-Feb-05 22:29N 58°40' E 017°08'0 0.0
2018-Feb-05 21:59N 58°40' E 017°08'0 0.0
2018-Feb-05 21:29N 58°40' E 017°08'0 0.0
2018-Feb-05 20:59N 58°40' E 017°08'0 0.0
2018-Feb-05 20:29N 58°40' E 017°08'0 0.0
2018-Feb-05 19:58N 58°40' E 017°08'0 0.0
2018-Feb-05 19:28N 58°40' E 017°08'0 0.0
2018-Feb-05 18:58N 58°40' E 017°08'0 0.0
2018-Feb-05 18:28N 58°40' E 017°08'0 0.0
2018-Feb-05 17:58N 58°40' E 017°08'0 0.0
2018-Feb-05 17:25N 58°40' E 017°08'0 0.0
2018-Feb-05 17:00N 58°40' E 017°08'0 0.0
2018-Feb-05 16:30N 58°40' E 017°08'0 0.0
2018-Feb-05 16:00N 58°40' E 017°08'0 0.0
2018-Feb-05 15:30N 58°40' E 017°08'0 0.0
2018-Feb-05 15:00N 58°40' E 017°08'0 0.0
2018-Feb-05 14:30N 58°40' E 017°08'0 0.0
2018-Feb-05 14:00N 58°40' E 017°08'0 0.0
2018-Feb-05 13:30N 58°40' E 017°08'0 0.0
2018-Feb-05 13:00N 58°40' E 017°08'0 0.0
2018-Feb-05 12:30N 58°40' E 017°08'0 0.0
2018-Feb-05 12:00N 58°40' E 017°08'0 0.0
2018-Feb-05 11:30N 58°40' E 017°08'0 0.0
2018-Feb-05 11:00N 58°40' E 017°08'0 0.0
2018-Feb-05 10:30N 58°40' E 017°08'0 0.0
2018-Feb-05 10:00N 58°40' E 017°08'0 0.0
2018-Feb-05 09:30N 58°40' E 017°08'0 0.0
2018-Feb-05 09:00N 58°40' E 017°08'0 0.0
2018-Feb-05 08:30N 58°40' E 017°08'0 0.0
2018-Feb-05 08:00N 58°40' E 017°08'0 0.0
2018-Feb-05 07:30N 58°40' E 017°08'0 0.0
2018-Feb-05 07:00N 58°40' E 017°08'0 0.0
2018-Feb-05 06:30N 58°40' E 017°08'0 0.0
2018-Feb-05 05:30N 58°40' E 017°08'0 0.0
2018-Feb-05 05:00N 58°40' E 017°08'0 0.0
2018-Feb-05 04:30N 58°40' E 017°08'0 0.0
2018-Feb-05 04:00N 58°40' E 017°08'0 0.0
2018-Feb-05 03:30N 58°40' E 017°08'0 0.0
2018-Feb-05 03:00N 58°40' E 017°08'0 0.0
2018-Feb-05 02:30N 58°40' E 017°08'0 0.0
2018-Feb-05 02:00N 58°40' E 017°08'0 0.0
2018-Feb-05 01:30N 58°40' E 017°08'0 0.0
2018-Feb-05 01:00N 58°40' E 017°08'0 0.0
2018-Feb-05 00:30N 58°40' E 017°08'0 0.0
2018-Feb-05 00:00N 58°40' E 017°08'0 0.0
2018-Feb-04 23:30N 58°40' E 017°08'0 0.0
2018-Feb-04 23:00N 58°40' E 017°08'0 0.0
2018-Feb-04 22:30N 58°40' E 017°08'0 0.0
2018-Feb-04 22:00N 58°40' E 017°08'0 0.0
2018-Feb-04 21:30N 58°40' E 017°08'0 0.0
2018-Feb-04 20:51N 58°40' E 017°08'0 0.0
2018-Feb-04 20:00N 58°40' E 017°08'0 0.0
2018-Feb-04 19:27N 58°40' E 017°08'0 0.0
2018-Feb-04 19:00N 58°40' E 017°08'0 0.0
2018-Feb-04 18:30N 58°40' E 017°08'0 0.0
2018-Feb-04 18:00N 58°40' E 017°08'0 0.0
2018-Feb-04 17:27N 58°40' E 017°08'0 0.0
2018-Feb-04 15:30N 58°40' E 017°08'0 0.0
2018-Feb-04 14:57N 58°40' E 017°08'0 0.0
2018-Feb-04 14:30N 58°40' E 017°08'0 0.0
2018-Feb-04 14:00N 58°40' E 017°08'0 0.0
2018-Feb-04 13:30N 58°40' E 017°08'0 0.0
2018-Feb-04 12:59N 58°40' E 017°08'0 0.0
2018-Feb-04 12:29N 58°40' E 017°08'0 0.0
2018-Feb-04 11:59N 58°40' E 017°08'0 0.0
2018-Feb-04 11:29N 58°40' E 017°08'0 0.0
2018-Feb-04 09:59N 58°40' E 017°08'0 0.0
2018-Feb-04 08:59N 58°40' E 017°08'0 0.0
2018-Feb-04 08:29N 58°40' E 017°08'0 0.0
2018-Feb-04 07:59N 58°40' E 017°08'0 0.0
2018-Feb-04 07:29N 58°40' E 017°08'0 0.0
2018-Feb-04 06:59N 58°40' E 017°08'0 0.0
2018-Feb-04 06:29N 58°40' E 017°08'0 0.0
2018-Feb-04 05:59N 58°40' E 017°08'0 0.0
2018-Feb-04 05:29N 58°40' E 017°08'0 0.0
2018-Feb-04 04:59N 58°40' E 017°08'0 0.0
2018-Feb-04 04:29N 58°40' E 017°08'0 0.0
2018-Feb-04 03:59N 58°40' E 017°08'0 0.0
2018-Feb-04 03:29N 58°40' E 017°08'0 0.0
2018-Feb-04 02:59N 58°40' E 017°08'0 0.0
2018-Feb-04 02:26N 58°40' E 017°08'0 0.0
2018-Feb-04 02:00N 58°40' E 017°08'0 0.0
2018-Feb-04 01:30N 58°40' E 017°08'0 0.0
2018-Feb-04 00:59N 58°40' E 017°08'0 0.0
2018-Feb-04 00:29N 58°40' E 017°08'0 0.0
2018-Feb-03 23:59N 58°40' E 017°08'0 0.0
2018-Feb-03 23:29N 58°40' E 017°08'0 0.0
2018-Feb-03 22:59N 58°40' E 017°08'0 0.0
2018-Feb-03 22:29N 58°40' E 017°08'0 0.0
2018-Feb-03 21:53N 58°40' E 017°08'0 0.0
2018-Feb-03 21:29N 58°40' E 017°08'0 0.0
2018-Feb-03 20:58N 58°40' E 017°08'0 0.0
2018-Feb-03 20:28N 58°40' E 017°08'0 0.0
2018-Feb-03 19:54N 58°40' E 017°08'0 0.0
2018-Feb-03 18:24N 58°40' E 017°08'0 0.0
2018-Feb-03 18:00N 58°40' E 017°08'0 0.0
2018-Feb-03 17:24N 58°40' E 017°08'0 0.0
2018-Feb-03 16:57N 58°40' E 017°08'0 0.0
2018-Feb-03 16:00N 58°40' E 017°08'0 0.0
2018-Feb-03 15:30N 58°40' E 017°08'0 0.0
2018-Feb-03 14:45N 58°40' E 017°08'0 0.0
2018-Feb-03 13:55N 58°40' E 017°08'0 0.0
2018-Feb-03 13:25N 58°40' E 017°08'0 0.0
2018-Feb-03 12:55N 58°40' E 017°08'0 0.0
2018-Feb-03 11:25N 58°40' E 017°08'0 0.0
2018-Feb-03 10:55N 58°40' E 017°08'0 0.0
2018-Feb-03 10:19N 58°40' E 017°08'0 0.0
2018-Feb-03 09:58N 58°40' E 017°08'  

Dump ship's entire track history